createdAt,value
2023-04-22T00:01:30.582Z,7.8
2023-04-22T00:04:32.698Z,7.7
2023-04-22T00:07:34.496Z,8
2023-04-22T00:10:36.462Z,6.2
2023-04-22T00:13:38.441Z,8.4
2023-04-22T00:16:40.560Z,7
2023-04-22T00:19:42.503Z,6.6
2023-04-22T00:22:44.346Z,9.1
2023-04-22T00:25:46.249Z,7.2
2023-04-22T00:28:48.242Z,7.4
2023-04-22T00:31:50.377Z,7.2
2023-04-22T00:34:52.144Z,8.6
2023-04-22T00:37:54.147Z,7.6
2023-04-22T00:40:56.058Z,5.8
2023-04-22T00:43:58.013Z,5.4
2023-04-22T00:47:00.013Z,6.2
2023-04-22T00:50:01.912Z,5.8
2023-04-22T00:53:03.922Z,6.2
2023-04-22T00:56:05.817Z,6.3
2023-04-22T00:59:07.791Z,8.5
2023-04-22T01:02:09.846Z,6.3
2023-04-22T01:05:11.724Z,8.3
2023-04-22T01:08:13.753Z,8.5
2023-04-22T01:11:15.712Z,7
2023-04-22T01:14:17.646Z,6.8
2023-04-22T01:17:19.633Z,8.8
2023-04-22T01:20:21.559Z,6.4
2023-04-22T01:23:23.475Z,7.6
2023-04-22T01:26:25.439Z,6.4
2023-04-22T01:29:27.448Z,7.8
2023-04-22T01:32:29.506Z,8.6
2023-04-22T01:35:31.392Z,6.2
2023-04-22T01:38:33.384Z,5.6
2023-04-22T01:41:35.307Z,5
2023-04-22T01:44:37.267Z,6.3
2023-04-22T01:47:39.233Z,5.7
2023-04-22T01:50:41.254Z,5.7
2023-04-22T01:53:43.152Z,6.9
2023-04-22T01:56:45.075Z,5.7
2023-04-22T01:59:47.073Z,8
2023-04-22T02:02:49.147Z,6.9
2023-04-22T02:05:51.013Z,8.3
2023-04-22T02:08:53.000Z,5.6
2023-04-22T02:11:54.930Z,7.5
2023-04-22T02:14:56.917Z,7.2
2023-04-22T02:17:58.862Z,8.2
2023-04-22T02:21:00.814Z,8.7
2023-04-22T02:24:02.818Z,5.5
2023-04-22T02:27:04.778Z,6
2023-04-22T02:30:06.745Z,5.1
2023-04-22T02:33:08.726Z,8.3
2023-04-22T02:36:10.680Z,6.6
2023-04-22T02:39:12.585Z,6
2023-04-22T02:42:14.526Z,5.4
2023-04-22T02:45:16.502Z,5.7
2023-04-22T02:48:18.458Z,8.3
2023-04-22T02:51:20.410Z,7.5
2023-04-22T02:54:22.377Z,8.6
2023-04-22T02:57:24.331Z,6.7
2023-04-22T03:00:26.320Z,6.3
2023-04-22T03:03:28.330Z,4.8
2023-04-22T03:06:30.475Z,4.9
2023-04-22T03:09:32.201Z,5.4
2023-04-22T03:12:34.136Z,5.6
2023-04-22T03:15:36.137Z,4.4
2023-04-22T03:18:38.083Z,5.9
2023-04-22T03:21:40.056Z,5.1
2023-04-22T03:24:42.022Z,5.4
2023-04-22T03:27:43.985Z,5.3
2023-04-22T03:30:45.950Z,4.9
2023-04-22T03:33:47.890Z,4.9
2023-04-22T03:36:49.892Z,5.4
2023-04-22T03:39:51.852Z,6.3
2023-04-22T03:42:53.791Z,5
2023-04-22T03:45:55.824Z,4.8
2023-04-22T03:48:57.733Z,5.9
2023-04-22T03:51:59.666Z,7.6
2023-04-22T03:55:01.660Z,5.1
2023-04-22T03:58:03.597Z,4.9
2023-04-22T04:01:05.601Z,6.6
2023-04-22T04:04:07.688Z,4.5
2023-04-22T04:07:09.526Z,5.9
2023-04-22T04:10:11.508Z,7.5
2023-04-22T04:13:13.491Z,4.7
2023-04-22T04:16:15.498Z,6.2
2023-04-22T04:19:17.409Z,5.3
2023-04-22T04:22:19.397Z,5.9
2023-04-22T04:25:21.451Z,7.5
2023-04-22T04:28:23.332Z,4.9
2023-04-22T04:31:25.347Z,4.4
2023-04-22T04:34:27.270Z,8.4
2023-04-22T04:37:29.298Z,5.6
2023-04-22T04:40:31.251Z,6.9
2023-04-22T04:43:33.241Z,6.9
2023-04-22T04:46:35.221Z,5
2023-04-22T04:49:37.166Z,6.9
2023-04-22T04:52:39.081Z,6.4
2023-04-22T04:55:41.317Z,5.8
2023-04-22T04:58:43.023Z,7.5
2023-04-22T05:01:47.330Z,11.5
2023-04-22T05:04:47.042Z,4.9
2023-04-22T05:07:49.029Z,5.3
2023-04-22T05:10:51.004Z,6.4
2023-04-22T05:13:52.960Z,6.7
2023-04-22T05:16:54.959Z,4.8
2023-04-22T05:19:56.895Z,5.6
2023-04-22T05:22:58.833Z,5.3
2023-04-22T05:26:00.808Z,5.2
2023-04-22T05:29:02.812Z,6.6
2023-04-22T05:32:04.836Z,5.1
2023-04-22T05:35:06.707Z,5.3
2023-04-22T05:38:08.708Z,7.2
2023-04-22T05:41:10.717Z,4.8
2023-04-22T05:44:12.646Z,5.7
2023-04-22T05:47:14.623Z,5.8
2023-04-22T05:50:16.607Z,6.1
2023-04-22T05:53:18.567Z,5.8
2023-04-22T05:56:20.520Z,6.7
2023-04-22T05:59:22.479Z,7.8
2023-04-22T06:02:24.553Z,6.8
2023-04-22T06:05:26.609Z,8.7
2023-04-22T06:08:28.369Z,6.8
2023-04-22T06:11:30.386Z,5.8
2023-04-22T06:14:32.317Z,4.8
2023-04-22T06:17:34.330Z,5.6
2023-04-22T06:20:36.287Z,5.6
2023-04-22T06:23:38.222Z,6.5
2023-04-22T06:26:40.178Z,7.1
2023-04-22T06:29:42.134Z,4.8
2023-04-22T06:32:44.156Z,5
2023-04-22T06:35:46.057Z,6.3
2023-04-22T06:38:48.021Z,5.6
2023-04-22T06:41:49.961Z,5.7
2023-04-22T06:44:51.954Z,7.1
2023-04-22T06:47:53.952Z,5
2023-04-22T06:50:55.832Z,4.3
2023-04-22T06:53:57.768Z,5
2023-04-22T06:56:59.784Z,4.7
2023-04-22T07:00:01.736Z,6
2023-04-22T07:03:03.792Z,5.1
2023-04-22T07:06:05.723Z,6.8
2023-04-22T07:09:07.712Z,6.4
2023-04-22T07:12:09.668Z,6.3
2023-04-22T07:15:11.639Z,5.3
2023-04-22T07:18:13.549Z,5.7
2023-04-22T07:21:15.528Z,5
2023-04-22T07:24:17.499Z,4
2023-04-22T07:27:19.523Z,4
2023-04-22T07:30:21.419Z,6.7
2023-04-22T07:33:23.424Z,3.8
2023-04-22T07:36:25.416Z,5.2
2023-04-22T07:39:27.363Z,3.4
2023-04-22T07:42:29.347Z,4.1
2023-04-22T07:45:31.641Z,4.1
2023-04-22T07:48:33.522Z,5.7
2023-04-22T07:51:35.500Z,4.1
2023-04-22T07:54:37.475Z,5
2023-04-22T07:57:39.475Z,5.9
2023-04-22T08:00:41.497Z,6
2023-04-22T08:03:43.552Z,5.5
2023-04-22T08:06:45.396Z,4.5
2023-04-22T08:09:47.362Z,6.7
2023-04-22T08:12:49.346Z,3.9
2023-04-22T08:15:51.352Z,5
2023-04-22T08:18:53.288Z,3.6
2023-04-22T08:21:55.227Z,5
2023-04-22T08:24:57.207Z,4.5
2023-04-22T08:27:59.241Z,3.7
2023-04-22T08:31:01.274Z,3.7
2023-04-22T08:34:03.306Z,4.8
2023-04-22T08:37:05.229Z,4
2023-04-22T08:40:07.251Z,4.2
2023-04-22T08:43:09.442Z,4.2
2023-04-22T08:46:11.506Z,6.1
2023-04-22T08:49:13.774Z,3.2
2023-04-22T08:52:15.818Z,4.4
2023-04-22T08:55:17.742Z,3.6
2023-04-22T08:58:19.737Z,3
2023-04-22T09:01:21.763Z,3.4
2023-04-22T09:04:23.820Z,4.6
2023-04-22T09:07:25.725Z,4.7
2023-04-22T09:10:27.667Z,2.2
2023-04-22T09:13:29.658Z,2.7
2023-04-22T09:16:31.869Z,2
2023-04-22T09:19:33.769Z,2.7
2023-04-22T09:22:35.845Z,2.8
2023-04-22T09:25:37.844Z,2.2
2023-04-22T09:28:39.951Z,2.3
2023-04-22T09:31:42.315Z,3.7
2023-04-22T09:34:44.107Z,2.5
2023-04-22T09:37:49.447Z,2.2
2023-04-22T09:40:48.079Z,2.4
2023-04-22T09:43:50.080Z,2.3
2023-04-22T09:46:52.120Z,1.8
2023-04-22T09:49:54.106Z,2.5
2023-04-22T09:52:56.271Z,3
2023-04-22T09:55:58.105Z,1.9
2023-04-22T09:59:00.053Z,4.1
2023-04-22T10:02:02.242Z,3.5
2023-04-22T10:05:04.142Z,2.5
2023-04-22T10:08:06.214Z,2.3
2023-04-22T10:11:08.230Z,3.2
2023-04-22T10:14:10.215Z,2.8
2023-04-22T10:17:12.343Z,2.9
2023-04-22T10:20:14.156Z,3.5
2023-04-22T10:23:16.127Z,2.6
2023-04-22T10:26:18.020Z,2.7
2023-04-22T10:29:20.009Z,1.7
2023-04-22T10:32:21.990Z,2.3
2023-04-22T10:35:23.989Z,2.5
2023-04-22T10:38:25.919Z,3.6
2023-04-22T10:41:27.868Z,2.8
2023-04-22T10:44:29.821Z,2.6
2023-04-22T10:47:31.862Z,2.5
2023-04-22T10:50:33.840Z,3.7
2023-04-22T10:53:35.807Z,2.5
2023-04-22T10:56:40.891Z,2.7
2023-04-22T10:59:39.917Z,2.9
2023-04-22T11:02:41.829Z,2.7
2023-04-22T11:05:43.787Z,2.5
2023-04-22T11:08:45.645Z,2.7
2023-04-22T11:11:47.630Z,2.5
2023-04-22T11:14:49.585Z,2.9
2023-04-22T11:17:51.595Z,2.3
2023-04-22T11:20:53.578Z,2
2023-04-22T11:23:55.501Z,2.7
2023-04-22T11:26:57.491Z,2.9
2023-04-22T11:29:59.414Z,2.2
2023-04-22T11:33:01.417Z,2
2023-04-22T11:36:03.383Z,2.9
2023-04-22T11:39:05.326Z,3.6
2023-04-22T11:42:07.295Z,3
2023-04-22T11:45:09.276Z,3.4
2023-04-22T11:48:11.264Z,2.9
2023-04-22T11:51:13.169Z,2.7
2023-04-22T11:54:15.180Z,3.3
2023-04-22T11:57:17.104Z,2.1
2023-04-22T12:00:19.066Z,1.3
2023-04-22T12:03:21.146Z,1.6
2023-04-22T12:06:23.019Z,2.2
2023-04-22T12:09:24.969Z,4
2023-04-22T12:12:26.952Z,1.5
2023-04-22T12:15:28.923Z,2
2023-04-22T12:18:30.876Z,2.2
2023-04-22T12:21:32.867Z,2.5
2023-04-22T12:24:34.806Z,3.3
2023-04-22T12:27:36.898Z,3.3
2023-04-22T12:30:38.867Z,2.1
2023-04-22T12:33:40.856Z,2.7
2023-04-22T12:36:42.837Z,2.8
2023-04-22T12:39:44.811Z,1.6
2023-04-22T12:42:46.726Z,2.4
2023-04-22T12:45:48.684Z,2.2
2023-04-22T12:48:50.681Z,2.3
2023-04-22T12:51:52.613Z,4
2023-04-22T12:54:54.581Z,3.3
2023-04-22T12:57:56.531Z,4.6
2023-04-22T13:00:58.521Z,1.7
2023-04-22T13:04:00.689Z,2.1
2023-04-22T13:07:02.472Z,3.1
2023-04-22T13:10:04.482Z,2.9
2023-04-22T13:13:17.467Z,1.9
2023-04-22T13:16:08.449Z,1.8
2023-04-22T13:19:10.389Z,2.7
2023-04-22T13:22:12.549Z,2.6
2023-04-22T13:25:14.352Z,3
2023-04-22T13:28:16.302Z,2.7
2023-04-22T13:31:18.276Z,1.6
2023-04-22T13:34:20.256Z,1.9
2023-04-22T13:37:22.229Z,2.1
2023-04-22T13:40:24.230Z,3.6
2023-04-22T13:43:26.136Z,2.6
2023-04-22T13:46:29.712Z,2.7
2023-04-22T13:49:30.067Z,2.7
2023-04-22T13:52:32.027Z,9.2
2023-04-22T13:55:34.045Z,2.8
2023-04-22T13:58:35.987Z,2.6
2023-04-22T14:01:38.000Z,3.5
2023-04-22T14:04:40.077Z,3.5
2023-04-22T14:07:42.081Z,2.4
2023-04-22T14:10:44.085Z,3.4
2023-04-22T14:13:45.984Z,2.8
2023-04-22T14:16:47.985Z,2.7
2023-04-22T14:19:49.949Z,2.6
2023-04-22T14:22:51.881Z,2.9
2023-04-22T14:25:53.867Z,3.1
2023-04-22T14:28:55.839Z,3.8
2023-04-22T14:31:57.795Z,1.9
2023-04-22T14:34:59.772Z,3
2023-04-22T14:38:01.789Z,4.4
2023-04-22T14:41:03.718Z,4.2
2023-04-22T14:44:05.699Z,3.3
2023-04-22T14:47:07.669Z,2
2023-04-22T14:50:09.634Z,3.2
2023-04-22T14:53:11.615Z,2.5
2023-04-22T14:56:13.610Z,1.9
2023-04-22T14:59:15.559Z,2.5
2023-04-22T15:02:17.540Z,1.3
2023-04-22T15:05:19.514Z,2.3
2023-04-22T15:08:21.593Z,3.2
2023-04-22T15:11:23.413Z,2.9
2023-04-22T15:14:25.373Z,1.7
2023-04-22T15:17:27.409Z,3.6
2023-04-22T15:20:29.338Z,3.1
2023-04-22T15:23:31.289Z,3.1
2023-04-22T15:26:33.269Z,2.7
2023-04-22T15:29:35.230Z,2.2
2023-04-22T15:32:37.241Z,3
2023-04-22T15:35:39.180Z,2.6
2023-04-22T15:38:41.157Z,3.4
2023-04-22T15:41:43.135Z,2.2
2023-04-22T15:44:45.078Z,4.5
2023-04-22T15:47:47.157Z,2.1
2023-04-22T15:50:49.025Z,2.7
2023-04-22T15:53:51.034Z,2.3
2023-04-22T15:56:52.968Z,4.4
2023-04-22T16:00:03.084Z,4.2
2023-04-22T16:02:57.076Z,2.5
2023-04-22T16:05:58.882Z,2.8
2023-04-22T16:09:00.823Z,3.1
2023-04-22T16:12:02.865Z,4.8
2023-04-22T16:15:04.808Z,2.7
2023-04-22T16:18:06.805Z,2.7
2023-04-22T16:21:08.739Z,3.4
2023-04-22T16:24:10.698Z,2.7
2023-04-22T16:27:12.698Z,3.8
2023-04-22T16:30:16.170Z,2.2
2023-04-22T16:33:16.614Z,3.7
2023-04-22T16:36:18.695Z,4.5
2023-04-22T16:39:20.548Z,2.8
2023-04-22T16:42:22.612Z,4.1
2023-04-22T16:45:24.516Z,2.7
2023-04-22T16:48:26.578Z,3.6
2023-04-22T16:51:28.522Z,4.6
2023-04-22T16:54:30.440Z,4
2023-04-22T16:57:32.416Z,4.9
2023-04-22T17:00:34.393Z,2.9
2023-04-22T17:03:36.520Z,3.9
2023-04-22T17:06:39.744Z,3.9
2023-04-22T17:09:40.524Z,3.3
2023-04-22T17:12:42.258Z,2.2
2023-04-22T17:15:44.329Z,2.7
2023-04-22T17:18:46.264Z,4.4
2023-04-22T17:21:48.240Z,3.7
2023-04-22T17:24:50.180Z,3.1
2023-04-22T17:27:52.152Z,4.3
2023-04-22T17:30:54.138Z,3
2023-04-22T17:33:56.131Z,2.9
2023-04-22T17:36:58.033Z,5.6
2023-04-22T17:40:00.031Z,3.6
2023-04-22T17:43:01.946Z,3.5
2023-04-22T17:46:03.910Z,2.2
2023-04-22T17:49:05.870Z,2.6
2023-04-22T17:52:07.957Z,3.1
2023-04-22T17:55:09.776Z,4.7
2023-04-22T17:58:11.768Z,3.6
2023-04-22T18:01:13.742Z,3.9
2023-04-22T18:04:15.836Z,3.3
2023-04-22T18:07:17.656Z,3.6
2023-04-22T18:10:19.636Z,3.1
2023-04-22T18:13:21.574Z,2.1
2023-04-22T18:16:23.686Z,2.8
2023-04-22T18:19:25.489Z,3.2
2023-04-22T18:22:27.472Z,2.7
2023-04-22T18:25:29.451Z,4.1
2023-04-22T18:28:31.375Z,3.1
2023-04-22T18:31:33.388Z,2.6
2023-04-22T18:34:35.313Z,4.2
2023-04-22T18:37:37.304Z,3
2023-04-22T18:40:39.248Z,2.9
2023-04-22T18:43:41.225Z,2.3
2023-04-22T18:46:43.161Z,2.7
2023-04-22T18:49:45.183Z,2.3
2023-04-22T18:52:47.104Z,4.3
2023-04-22T18:55:49.035Z,2.7
2023-04-22T18:58:51.031Z,2.5
2023-04-22T19:01:53.028Z,4.5
2023-04-22T19:04:54.933Z,3
2023-04-22T19:07:56.882Z,3.5
2023-04-22T19:10:58.854Z,2.3
2023-04-22T19:14:00.794Z,3
2023-04-22T19:17:02.766Z,4.1
2023-04-22T19:20:04.749Z,6.1
2023-04-22T19:23:06.691Z,4.2
2023-04-22T19:26:08.679Z,4.8
2023-04-22T19:29:10.635Z,1.6
2023-04-22T19:32:12.774Z,3.8
2023-04-22T19:35:14.522Z,2.7
2023-04-22T19:38:16.556Z,3.5
2023-04-22T19:41:18.500Z,3.7
2023-04-22T19:44:20.457Z,4.4
2023-04-22T19:47:22.403Z,4
2023-04-22T19:50:24.344Z,4
2023-04-22T19:53:26.296Z,4
2023-04-22T19:56:28.272Z,3.3
2023-04-22T19:59:30.208Z,3
2023-04-22T20:02:32.263Z,3.8
2023-04-22T20:05:34.125Z,2.4
2023-04-22T20:08:36.087Z,3.4
2023-04-22T20:11:38.057Z,2.9
2023-04-22T20:14:40.009Z,2.2
2023-04-22T20:17:42.008Z,4.9
2023-04-22T20:20:43.985Z,3.6
2023-04-22T20:23:48.674Z,5
2023-04-22T20:26:50.693Z,3.1
2023-04-22T20:29:52.636Z,2.9
2023-04-22T20:32:54.657Z,2.9
2023-04-22T20:35:56.545Z,3
2023-04-22T20:38:58.499Z,2.5
2023-04-22T20:42:00.457Z,3.9
2023-04-22T20:45:02.418Z,3.3
2023-04-22T20:48:04.386Z,3.6
2023-04-22T20:51:06.321Z,4.4
2023-04-22T20:54:17.680Z,4.5
2023-04-22T20:57:10.267Z,3
2023-04-22T21:00:12.258Z,3.1
2023-04-22T21:03:14.290Z,2.9
2023-04-22T21:06:16.163Z,3.8
2023-04-22T21:09:18.349Z,3.3
2023-04-22T21:12:20.167Z,5.2
2023-04-22T21:15:22.095Z,4.7
2023-04-22T21:18:24.041Z,3.8
2023-04-22T21:21:25.990Z,4.1
2023-04-22T21:24:27.964Z,4.8
2023-04-22T21:27:29.924Z,4.5
2023-04-22T21:30:31.899Z,4.4
2023-04-22T21:33:33.845Z,6.3
2023-04-22T21:36:35.768Z,4.4
2023-04-22T21:39:37.737Z,3.8
2023-04-22T21:42:39.685Z,3.9
2023-04-22T21:45:41.661Z,3.1
2023-04-22T21:48:43.613Z,4.8
2023-04-22T21:51:45.567Z,3.9
2023-04-22T21:54:47.558Z,4.3
2023-04-22T21:57:49.498Z,3.6
2023-04-22T22:00:51.462Z,5.4
2023-04-22T22:03:53.496Z,6.6
2023-04-22T22:06:55.360Z,3.6
2023-04-22T22:09:57.334Z,6.1
2023-04-22T22:12:59.322Z,7.9
2023-04-22T22:16:01.275Z,4.3
2023-04-22T22:19:03.221Z,5.3
2023-04-22T22:22:05.185Z,6.5
2023-04-22T22:25:07.165Z,4.6
2023-04-22T22:28:09.120Z,3.7
2023-04-22T22:31:11.114Z,4.5
2023-04-22T22:34:13.021Z,5
2023-04-22T22:37:15.023Z,4.1
2023-04-22T22:40:16.972Z,4.3
2023-04-22T22:43:18.955Z,4.1
2023-04-22T22:46:21.040Z,5.5
2023-04-22T22:49:22.877Z,4.3
2023-04-22T22:52:24.932Z,6.3
2023-04-22T22:55:26.795Z,5.6
2023-04-22T22:58:28.753Z,5
2023-04-22T23:01:30.760Z,4.6
2023-04-22T23:04:32.761Z,6
2023-04-22T23:07:34.615Z,5.7
2023-04-22T23:10:36.550Z,4.5
2023-04-22T23:13:38.549Z,4.7
2023-04-22T23:16:40.489Z,4.7
2023-04-22T23:19:42.462Z,7.2
2023-04-22T23:22:44.612Z,6.8
2023-04-22T23:25:46.362Z,4.3
2023-04-22T23:28:48.302Z,4.2
2023-04-22T23:31:50.310Z,4
2023-04-22T23:34:52.263Z,6.7
2023-04-22T23:37:54.212Z,4.7
2023-04-22T23:40:56.138Z,6
2023-04-22T23:43:58.125Z,5.3
2023-04-22T23:47:00.050Z,4.4
2023-04-22T23:50:02.055Z,5.9
2023-04-22T23:53:04.006Z,7.5
2023-04-22T23:56:05.965Z,5.8
2023-04-22T23:59:07.905Z,7.4
